sensor_id;sensor_type;location;lat;lon;timestamp;temperature;humidity
8862;DHT22;4799;50.996;4.754;2023-05-07T00:01:53;16.00;99.90
8862;DHT22;4799;50.996;4.754;2023-05-07T00:04:19;16.00;99.90
8862;DHT22;4799;50.996;4.754;2023-05-07T00:06:46;16.00;99.90
8862;DHT22;4799;50.996;4.754;2023-05-07T00:09:11;16.00;99.90
8862;DHT22;4799;50.996;4.754;2023-05-07T00:11:38;16.00;99.90
8862;DHT22;4799;50.996;4.754;2023-05-07T00:14:03;16.00;99.90
8862;DHT22;4799;50.996;4.754;2023-05-07T00:16:29;16.00;99.90
8862;DHT22;4799;50.996;4.754;2023-05-07T00:18:55;16.00;99.90
8862;DHT22;4799;50.996;4.754;2023-05-07T00:21:21;16.00;99.90
8862;DHT22;4799;50.996;4.754;2023-05-07T00:23:47;16.00;99.90
8862;DHT22;4799;50.996;4.754;2023-05-07T00:26:12;16.00;99.90
8862;DHT22;4799;50.996;4.754;2023-05-07T00:28:38;16.00;99.90
8862;DHT22;4799;50.996;4.754;2023-05-07T00:31:04;15.90;99.90
8862;DHT22;4799;50.996;4.754;2023-05-07T00:33:30;15.90;99.90
8862;DHT22;4799;50.996;4.754;2023-05-07T00:35:56;15.90;99.90
8862;DHT22;4799;50.996;4.754;2023-05-07T00:38:21;15.90;99.90
8862;DHT22;4799;50.996;4.754;2023-05-07T00:40:47;15.90;99.90
8862;DHT22;4799;50.996;4.754;2023-05-07T00:43:13;15.90;99.90
8862;DHT22;4799;50.996;4.754;2023-05-07T00:45:39;15.90;99.90
8862;DHT22;4799;50.996;4.754;2023-05-07T00:48:04;15.90;99.90
8862;DHT22;4799;50.996;4.754;2023-05-07T00:50:31;15.90;99.90
8862;DHT22;4799;50.996;4.754;2023-05-07T00:52:57;15.90;99.90
8862;DHT22;4799;50.996;4.754;2023-05-07T00:55:24;15.80;99.90
8862;DHT22;4799;50.996;4.754;2023-05-07T00:57:50;15.80;99.90
8862;DHT22;4799;50.996;4.754;2023-05-07T01:00:16;15.80;99.90
8862;DHT22;4799;50.996;4.754;2023-05-07T01:02:43;15.80;99.90
8862;DHT22;4799;50.996;4.754;2023-05-07T01:05:11;15.80;99.90
8862;DHT22;4799;50.996;4.754;2023-05-07T01:07:40;15.80;99.90
8862;DHT22;4799;50.996;4.754;2023-05-07T01:10:07;15.80;99.90
8862;DHT22;4799;50.996;4.754;2023-05-07T01:12:37;15.70;99.90
8862;DHT22;4799;50.996;4.754;2023-05-07T01:15:04;15.70;99.90
8862;DHT22;4799;50.996;4.754;2023-05-07T01:17:34;15.70;99.90
8862;DHT22;4799;50.996;4.754;2023-05-07T01:20:01;15.70;99.90
8862;DHT22;4799;50.996;4.754;2023-05-07T01:22:37;15.70;99.90
8862;DHT22;4799;50.996;4.754;2023-05-07T01:25:04;15.60;99.90
8862;DHT22;4799;50.996;4.754;2023-05-07T01:27:30;15.60;99.90
8862;DHT22;4799;50.996;4.754;2023-05-07T01:29:56;15.60;99.90
8862;DHT22;4799;50.996;4.754;2023-05-07T01:32:28;15.50;99.90
8862;DHT22;4799;50.996;4.754;2023-05-07T01:34:55;15.50;99.90
8862;DHT22;4799;50.996;4.754;2023-05-07T01:37:23;15.40;99.90
8862;DHT22;4799;50.996;4.754;2023-05-07T01:39:50;15.40;99.90
8862;DHT22;4799;50.996;4.754;2023-05-07T01:42:16;15.40;99.90
8862;DHT22;4799;50.996;4.754;2023-05-07T01:44:41;15.30;99.90
8862;DHT22;4799;50.996;4.754;2023-05-07T01:47:08;15.40;99.90
8862;DHT22;4799;50.996;4.754;2023-05-07T01:49:34;15.30;99.90
8862;DHT22;4799;50.996;4.754;2023-05-07T01:52:00;15.30;99.90
8862;DHT22;4799;50.996;4.754;2023-05-07T01:54:27;15.40;99.90
8862;DHT22;4799;50.996;4.754;2023-05-07T01:56:56;15.30;99.90
8862;DHT22;4799;50.996;4.754;2023-05-07T01:59:22;15.40;99.90
8862;DHT22;4799;50.996;4.754;2023-05-07T02:01:48;15.40;99.90
8862;DHT22;4799;50.996;4.754;2023-05-07T02:04:14;15.40;99.90
8862;DHT22;4799;50.996;4.754;2023-05-07T02:06:40;15.40;99.90
8862;DHT22;4799;50.996;4.754;2023-05-07T02:09:06;15.40;99.90
8862;DHT22;4799;50.996;4.754;2023-05-07T02:11:32;15.40;99.90
8862;DHT22;4799;50.996;4.754;2023-05-07T02:13:57;15.40;99.90
8862;DHT22;4799;50.996;4.754;2023-05-07T02:16:23;15.40;99.90
8862;DHT22;4799;50.996;4.754;2023-05-07T02:18:49;15.40;99.90
8862;DHT22;4799;50.996;4.754;2023-05-07T02:21:15;15.40;99.90
8862;DHT22;4799;50.996;4.754;2023-05-07T02:23:40;15.40;99.90
8862;DHT22;4799;50.996;4.754;2023-05-07T02:26:06;15.40;99.90
8862;DHT22;4799;50.996;4.754;2023-05-07T02:28:32;15.40;99.90
8862;DHT22;4799;50.996;4.754;2023-05-07T02:31:02;15.40;99.90
8862;DHT22;4799;50.996;4.754;2023-05-07T02:33:28;15.40;99.90
8862;DHT22;4799;50.996;4.754;2023-05-07T02:35:54;15.30;99.90
8862;DHT22;4799;50.996;4.754;2023-05-07T02:38:20;15.30;99.90
8862;DHT22;4799;50.996;4.754;2023-05-07T02:40:45;15.30;99.90
8862;DHT22;4799;50.996;4.754;2023-05-07T02:43:11;15.30;99.90
8862;DHT22;4799;50.996;4.754;2023-05-07T02:45:37;15.30;99.90
8862;DHT22;4799;50.996;4.754;2023-05-07T02:48:03;15.30;99.90
8862;DHT22;4799;50.996;4.754;2023-05-07T02:50:29;15.30;99.90
8862;DHT22;4799;50.996;4.754;2023-05-07T02:52:55;15.30;99.90
8862;DHT22;4799;50.996;4.754;2023-05-07T02:55:21;15.30;99.90
8862;DHT22;4799;50.996;4.754;2023-05-07T02:57:47;15.30;99.90
8862;DHT22;4799;50.996;4.754;2023-05-07T03:00:17;15.30;99.90
8862;DHT22;4799;50.996;4.754;2023-05-07T03:02:46;15.20;99.90
8862;DHT22;4799;50.996;4.754;2023-05-07T03:05:12;15.20;99.90
8862;DHT22;4799;50.996;4.754;2023-05-07T03:07:39;15.20;99.90
8862;DHT22;4799;50.996;4.754;2023-05-07T03:10:06;15.20;99.90
8862;DHT22;4799;50.996;4.754;2023-05-07T03:12:32;15.20;99.90
8862;DHT22;4799;50.996;4.754;2023-05-07T03:14:58;15.20;99.90
8862;DHT22;4799;50.996;4.754;2023-05-07T03:17:24;15.20;99.90
8862;DHT22;4799;50.996;4.754;2023-05-07T03:19:50;15.20;99.90
8862;DHT22;4799;50.996;4.754;2023-05-07T03:22:15;15.20;99.90
8862;DHT22;4799;50.996;4.754;2023-05-07T03:24:41;15.20;99.90
8862;DHT22;4799;50.996;4.754;2023-05-07T03:27:07;15.20;99.90
8862;DHT22;4799;50.996;4.754;2023-05-07T03:29:32;15.20;99.90
8862;DHT22;4799;50.996;4.754;2023-05-07T03:31:58;15.20;99.90
8862;DHT22;4799;50.996;4.754;2023-05-07T03:34:24;15.30;99.90
8862;DHT22;4799;50.996;4.754;2023-05-07T03:36:49;15.30;99.90
8862;DHT22;4799;50.996;4.754;2023-05-07T03:39:15;15.30;99.90
8862;DHT22;4799;50.996;4.754;2023-05-07T03:41:41;15.30;99.90
8862;DHT22;4799;50.996;4.754;2023-05-07T03:44:07;15.30;99.90
8862;DHT22;4799;50.996;4.754;2023-05-07T03:46:33;15.30;99.90
8862;DHT22;4799;50.996;4.754;2023-05-07T03:48:59;15.30;99.90
8862;DHT22;4799;50.996;4.754;2023-05-07T03:51:25;15.30;99.90
8862;DHT22;4799;50.996;4.754;2023-05-07T03:53:51;15.30;99.90
8862;DHT22;4799;50.996;4.754;2023-05-07T03:56:20;15.30;99.90
8862;DHT22;4799;50.996;4.754;2023-05-07T03:58:47;15.30;99.90
8862;DHT22;4799;50.996;4.754;2023-05-07T04:01:13;15.30;99.90
8862;DHT22;4799;50.996;4.754;2023-05-07T04:03:39;15.30;99.90
8862;DHT22;4799;50.996;4.754;2023-05-07T04:06:04;15.30;99.90
8862;DHT22;4799;50.996;4.754;2023-05-07T04:08:31;15.30;99.90
8862;DHT22;4799;50.996;4.754;2023-05-07T04:10:57;15.30;99.90
8862;DHT22;4799;50.996;4.754;2023-05-07T04:13:23;15.30;99.90
8862;DHT22;4799;50.996;4.754;2023-05-07T04:15:50;15.30;99.90
8862;DHT22;4799;50.996;4.754;2023-05-07T04:18:16;15.30;99.90
8862;DHT22;4799;50.996;4.754;2023-05-07T04:20:42;15.30;99.90
8862;DHT22;4799;50.996;4.754;2023-05-07T04:23:08;15.30;99.90
8862;DHT22;4799;50.996;4.754;2023-05-07T04:25:34;15.30;99.90
8862;DHT22;4799;50.996;4.754;2023-05-07T04:28:00;15.30;99.90
8862;DHT22;4799;50.996;4.754;2023-05-07T04:30:26;15.30;99.90
8862;DHT22;4799;50.996;4.754;2023-05-07T04:32:52;15.20;99.90
8862;DHT22;4799;50.996;4.754;2023-05-07T04:35:18;15.20;99.90
8862;DHT22;4799;50.996;4.754;2023-05-07T04:37:44;15.20;99.90
8862;DHT22;4799;50.996;4.754;2023-05-07T04:40:10;15.10;99.90
8862;DHT22;4799;50.996;4.754;2023-05-07T04:42:35;15.20;99.90
8862;DHT22;4799;50.996;4.754;2023-05-07T04:45:02;15.10;99.90
8862;DHT22;4799;50.996;4.754;2023-05-07T04:47:28;15.10;99.90
8862;DHT22;4799;50.996;4.754;2023-05-07T04:49:54;15.10;99.90
8862;DHT22;4799;50.996;4.754;2023-05-07T04:52:19;15.10;99.90
8862;DHT22;4799;50.996;4.754;2023-05-07T04:54:45;15.20;99.90
8862;DHT22;4799;50.996;4.754;2023-05-07T04:57:11;15.20;99.90
8862;DHT22;4799;50.996;4.754;2023-05-07T04:59:37;15.20;99.90
8862;DHT22;4799;50.996;4.754;2023-05-07T05:02:03;15.30;99.90
8862;DHT22;4799;50.996;4.754;2023-05-07T05:04:29;15.30;99.90
8862;DHT22;4799;50.996;4.754;2023-05-07T05:06:55;15.40;99.90
8862;DHT22;4799;50.996;4.754;2023-05-07T05:09:21;15.50;99.90
8862;DHT22;4799;50.996;4.754;2023-05-07T05:11:47;15.50;99.90
8862;DHT22;4799;50.996;4.754;2023-05-07T05:14:13;15.60;99.90
8862;DHT22;4799;50.996;4.754;2023-05-07T05:16:39;15.60;99.90
8862;DHT22;4799;50.996;4.754;2023-05-07T05:19:04;15.60;99.90
8862;DHT22;4799;50.996;4.754;2023-05-07T05:21:31;15.70;99.90
8862;DHT22;4799;50.996;4.754;2023-05-07T05:23:57;15.70;99.90
8862;DHT22;4799;50.996;4.754;2023-05-07T05:26:23;15.80;99.90
8862;DHT22;4799;50.996;4.754;2023-05-07T05:28:49;15.80;99.90
8862;DHT22;4799;50.996;4.754;2023-05-07T05:31:16;15.90;99.90
8862;DHT22;4799;50.996;4.754;2023-05-07T05:33:42;15.90;99.90
8862;DHT22;4799;50.996;4.754;2023-05-07T05:36:09;16.00;99.90
8862;DHT22;4799;50.996;4.754;2023-05-07T05:38:36;16.10;99.90
8862;DHT22;4799;50.996;4.754;2023-05-07T05:41:01;16.20;99.90
8862;DHT22;4799;50.996;4.754;2023-05-07T05:43:27;16.30;99.90
8862;DHT22;4799;50.996;4.754;2023-05-07T05:45:53;16.40;99.90
8862;DHT22;4799;50.996;4.754;2023-05-07T05:48:18;16.40;99.90
8862;DHT22;4799;50.996;4.754;2023-05-07T05:50:45;16.50;99.90
8862;DHT22;4799;50.996;4.754;2023-05-07T05:53:10;16.50;99.90
8862;DHT22;4799;50.996;4.754;2023-05-07T05:55:36;16.60;99.90
8862;DHT22;4799;50.996;4.754;2023-05-07T05:58:02;16.60;99.90
8862;DHT22;4799;50.996;4.754;2023-05-07T06:00:29;16.60;99.90
8862;DHT22;4799;50.996;4.754;2023-05-07T06:02:55;16.60;99.90
8862;DHT22;4799;50.996;4.754;2023-05-07T06:05:20;16.70;99.90
8862;DHT22;4799;50.996;4.754;2023-05-07T06:07:46;16.60;99.90
8862;DHT22;4799;50.996;4.754;2023-05-07T06:10:12;16.60;99.90
8862;DHT22;4799;50.996;4.754;2023-05-07T06:12:38;16.70;99.90
8862;DHT22;4799;50.996;4.754;2023-05-07T06:15:04;16.70;99.90
8862;DHT22;4799;50.996;4.754;2023-05-07T06:17:30;16.70;99.90
8862;DHT22;4799;50.996;4.754;2023-05-07T06:19:55;16.70;99.90
8862;DHT22;4799;50.996;4.754;2023-05-07T06:22:21;16.70;99.90
8862;DHT22;4799;50.996;4.754;2023-05-07T06:24:47;16.80;99.90
8862;DHT22;4799;50.996;4.754;2023-05-07T06:27:13;16.80;99.90
8862;DHT22;4799;50.996;4.754;2023-05-07T06:29:39;16.90;99.90
8862;DHT22;4799;50.996;4.754;2023-05-07T06:32:12;17.00;99.90
8862;DHT22;4799;50.996;4.754;2023-05-07T06:34:39;17.20;99.90
8862;DHT22;4799;50.996;4.754;2023-05-07T06:37:05;17.30;99.90
8862;DHT22;4799;50.996;4.754;2023-05-07T06:39:31;17.40;99.90
8862;DHT22;4799;50.996;4.754;2023-05-07T06:41:57;17.50;99.90
8862;DHT22;4799;50.996;4.754;2023-05-07T06:44:23;17.70;99.90
8862;DHT22;4799;50.996;4.754;2023-05-07T06:46:49;17.80;99.90
8862;DHT22;4799;50.996;4.754;2023-05-07T06:49:15;17.90;99.90
8862;DHT22;4799;50.996;4.754;2023-05-07T06:51:41;18.00;99.90
8862;DHT22;4799;50.996;4.754;2023-05-07T06:54:06;18.00;99.90
8862;DHT22;4799;50.996;4.754;2023-05-07T06:56:33;18.10;99.90
8862;DHT22;4799;50.996;4.754;2023-05-07T06:59:00;18.20;99.90
8862;DHT22;4799;50.996;4.754;2023-05-07T07:01:26;18.20;99.90
8862;DHT22;4799;50.996;4.754;2023-05-07T07:03:52;18.10;99.90
8862;DHT22;4799;50.996;4.754;2023-05-07T07:06:17;18.00;99.90
8862;DHT22;4799;50.996;4.754;2023-05-07T07:08:43;18.00;99.90
8862;DHT22;4799;50.996;4.754;2023-05-07T07:11:10;17.90;99.90
8862;DHT22;4799;50.996;4.754;2023-05-07T07:13:36;17.90;99.90
8862;DHT22;4799;50.996;4.754;2023-05-07T07:16:02;17.90;99.90
8862;DHT22;4799;50.996;4.754;2023-05-07T07:18:28;17.90;99.90
8862;DHT22;4799;50.996;4.754;2023-05-07T07:20:54;18.00;99.90
8862;DHT22;4799;50.996;4.754;2023-05-07T07:23:20;18.00;99.90
8862;DHT22;4799;50.996;4.754;2023-05-07T07:25:46;18.10;99.90
8862;DHT22;4799;50.996;4.754;2023-05-07T07:28:11;18.10;99.90
8862;DHT22;4799;50.996;4.754;2023-05-07T07:30:38;18.30;99.90
8862;DHT22;4799;50.996;4.754;2023-05-07T07:33:04;18.40;99.90
8862;DHT22;4799;50.996;4.754;2023-05-07T07:35:31;18.50;99.90
8862;DHT22;4799;50.996;4.754;2023-05-07T07:37:57;18.60;99.90
8862;DHT22;4799;50.996;4.754;2023-05-07T07:40:23;18.60;99.90
8862;DHT22;4799;50.996;4.754;2023-05-07T07:42:49;18.60;99.90
8862;DHT22;4799;50.996;4.754;2023-05-07T07:45:15;18.70;99.90
8862;DHT22;4799;50.996;4.754;2023-05-07T07:47:40;18.80;99.90
8862;DHT22;4799;50.996;4.754;2023-05-07T07:50:07;18.80;99.90
8862;DHT22;4799;50.996;4.754;2023-05-07T07:52:33;18.90;99.90
8862;DHT22;4799;50.996;4.754;2023-05-07T07:54:59;18.90;99.90
8862;DHT22;4799;50.996;4.754;2023-05-07T07:57:25;18.90;99.90
8862;DHT22;4799;50.996;4.754;2023-05-07T07:59:51;18.90;99.90
8862;DHT22;4799;50.996;4.754;2023-05-07T08:02:17;18.80;99.90
8862;DHT22;4799;50.996;4.754;2023-05-07T08:04:43;18.80;99.90
8862;DHT22;4799;50.996;4.754;2023-05-07T08:07:09;18.70;99.90
8862;DHT22;4799;50.996;4.754;2023-05-07T08:09:39;18.70;99.90
8862;DHT22;4799;50.996;4.754;2023-05-07T08:12:05;18.70;99.90
8862;DHT22;4799;50.996;4.754;2023-05-07T08:14:31;18.80;99.90
8862;DHT22;4799;50.996;4.754;2023-05-07T08:16:57;18.70;99.90
8862;DHT22;4799;50.996;4.754;2023-05-07T08:19:23;18.70;99.90
8862;DHT22;4799;50.996;4.754;2023-05-07T08:21:49;18.80;99.90
8862;DHT22;4799;50.996;4.754;2023-05-07T08:24:16;18.90;99.90
8862;DHT22;4799;50.996;4.754;2023-05-07T08:26:43;19.00;99.90
8862;DHT22;4799;50.996;4.754;2023-05-07T08:29:08;19.00;99.90
8862;DHT22;4799;50.996;4.754;2023-05-07T08:31:34;19.10;99.90
8862;DHT22;4799;50.996;4.754;2023-05-07T08:34:00;19.10;99.90
8862;DHT22;4799;50.996;4.754;2023-05-07T08:36:26;19.00;99.90
8862;DHT22;4799;50.996;4.754;2023-05-07T08:38:52;18.90;99.90
8862;DHT22;4799;50.996;4.754;2023-05-07T08:41:18;18.90;99.90
8862;DHT22;4799;50.996;4.754;2023-05-07T08:43:48;18.90;99.90
8862;DHT22;4799;50.996;4.754;2023-05-07T08:46:20;19.00;99.90
8862;DHT22;4799;50.996;4.754;2023-05-07T08:48:50;19.00;99.90
8862;DHT22;4799;50.996;4.754;2023-05-07T08:51:18;19.00;99.90
8862;DHT22;4799;50.996;4.754;2023-05-07T08:53:44;19.00;99.90
8862;DHT22;4799;50.996;4.754;2023-05-07T08:56:11;19.10;99.90
8862;DHT22;4799;50.996;4.754;2023-05-07T08:58:37;19.10;99.90
8862;DHT22;4799;50.996;4.754;2023-05-07T09:01:07;19.10;99.90
8862;DHT22;4799;50.996;4.754;2023-05-07T09:03:34;19.10;99.90
8862;DHT22;4799;50.996;4.754;2023-05-07T09:05:59;19.20;99.90
8862;DHT22;4799;50.996;4.754;2023-05-07T09:08:26;19.20;99.90
8862;DHT22;4799;50.996;4.754;2023-05-07T09:10:53;19.40;99.90
8862;DHT22;4799;50.996;4.754;2023-05-07T09:13:19;19.40;99.90
8862;DHT22;4799;50.996;4.754;2023-05-07T09:15:45;19.50;99.90
8862;DHT22;4799;50.996;4.754;2023-05-07T09:18:12;19.40;99.90
8862;DHT22;4799;50.996;4.754;2023-05-07T09:20:39;19.40;99.90
8862;DHT22;4799;50.996;4.754;2023-05-07T09:23:06;19.40;99.90
8862;DHT22;4799;50.996;4.754;2023-05-07T09:25:34;19.40;99.90
8862;DHT22;4799;50.996;4.754;2023-05-07T09:28:00;19.40;99.90
8862;DHT22;4799;50.996;4.754;2023-05-07T09:30:33;19.30;99.90
8862;DHT22;4799;50.996;4.754;2023-05-07T09:33:01;19.40;99.90
8862;DHT22;4799;50.996;4.754;2023-05-07T09:35:27;19.50;99.90
8862;DHT22;4799;50.996;4.754;2023-05-07T09:37:55;19.60;99.90
8862;DHT22;4799;50.996;4.754;2023-05-07T09:40:25;19.80;99.90
8862;DHT22;4799;50.996;4.754;2023-05-07T09:42:51;19.80;99.90
8862;DHT22;4799;50.996;4.754;2023-05-07T09:45:27;19.90;99.90
8862;DHT22;4799;50.996;4.754;2023-05-07T09:47:55;20.00;99.90
8862;DHT22;4799;50.996;4.754;2023-05-07T09:50:29;20.00;99.90
8862;DHT22;4799;50.996;4.754;2023-05-07T09:52:58;20.00;99.90
8862;DHT22;4799;50.996;4.754;2023-05-07T09:55:24;20.10;99.90
8862;DHT22;4799;50.996;4.754;2023-05-07T09:57:51;20.10;99.90
8862;DHT22;4799;50.996;4.754;2023-05-07T10:00:22;20.10;99.90
8862;DHT22;4799;50.996;4.754;2023-05-07T10:02:52;20.00;99.90
8862;DHT22;4799;50.996;4.754;2023-05-07T10:05:19;19.90;99.90
8862;DHT22;4799;50.996;4.754;2023-05-07T10:07:46;19.80;99.90
8862;DHT22;4799;50.996;4.754;2023-05-07T10:10:12;19.70;99.90
8862;DHT22;4799;50.996;4.754;2023-05-07T10:12:40;19.70;99.90
8862;DHT22;4799;50.996;4.754;2023-05-07T10:15:08;19.60;99.90
8862;DHT22;4799;50.996;4.754;2023-05-07T10:17:36;19.60;99.90
8862;DHT22;4799;50.996;4.754;2023-05-07T10:20:04;19.70;99.90
8862;DHT22;4799;50.996;4.754;2023-05-07T10:22:39;19.70;99.90
8862;DHT22;4799;50.996;4.754;2023-05-07T10:25:25;19.80;99.90
8862;DHT22;4799;50.996;4.754;2023-05-07T10:27:55;19.90;99.90
8862;DHT22;4799;50.996;4.754;2023-05-07T10:30:40;20.00;99.90
8862;DHT22;4799;50.996;4.754;2023-05-07T10:33:11;20.00;99.90
8862;DHT22;4799;50.996;4.754;2023-05-07T10:35:41;20.10;99.90
8862;DHT22;4799;50.996;4.754;2023-05-07T10:38:08;20.10;99.90
8862;DHT22;4799;50.996;4.754;2023-05-07T10:40:34;20.20;99.90
8862;DHT22;4799;50.996;4.754;2023-05-07T10:43:02;20.30;99.90
8862;DHT22;4799;50.996;4.754;2023-05-07T10:45:30;20.30;99.90
8862;DHT22;4799;50.996;4.754;2023-05-07T10:48:13;20.40;99.90
8862;DHT22;4799;50.996;4.754;2023-05-07T10:50:44;20.50;99.90
8862;DHT22;4799;50.996;4.754;2023-05-07T10:55:47;20.50;99.90
8862;DHT22;4799;50.996;4.754;2023-05-07T10:58:28;20.60;99.90
8862;DHT22;4799;50.996;4.754;2023-05-07T11:03:27;20.70;99.90
8862;DHT22;4799;50.996;4.754;2023-05-07T11:06:14;20.70;99.90
8862;DHT22;4799;50.996;4.754;2023-05-07T11:08:56;20.80;99.90
8862;DHT22;4799;50.996;4.754;2023-05-07T11:11:47;20.80;99.90
8862;DHT22;4799;50.996;4.754;2023-05-07T11:14:14;20.80;99.90
8862;DHT22;4799;50.996;4.754;2023-05-07T11:17:03;20.70;99.90
8862;DHT22;4799;50.996;4.754;2023-05-07T11:19:52;20.70;99.90
8862;DHT22;4799;50.996;4.754;2023-05-07T11:22:44;20.70;99.90
8862;DHT22;4799;50.996;4.754;2023-05-07T11:25:10;20.70;99.90
8862;DHT22;4799;50.996;4.754;2023-05-07T11:27:42;20.80;99.90
8862;DHT22;4799;50.996;4.754;2023-05-07T11:30:09;20.80;99.90
8862;DHT22;4799;50.996;4.754;2023-05-07T11:32:35;20.70;99.90
8862;DHT22;4799;50.996;4.754;2023-05-07T11:35:00;20.70;99.90
8862;DHT22;4799;50.996;4.754;2023-05-07T11:37:27;20.70;99.90
8862;DHT22;4799;50.996;4.754;2023-05-07T11:40:08;20.70;99.90
8862;DHT22;4799;50.996;4.754;2023-05-07T11:42:37;20.80;99.90
8862;DHT22;4799;50.996;4.754;2023-05-07T11:45:04;20.80;99.90
8862;DHT22;4799;50.996;4.754;2023-05-07T11:47:31;20.80;99.90
8862;DHT22;4799;50.996;4.754;2023-05-07T11:50:05;20.80;99.90
8862;DHT22;4799;50.996;4.754;2023-05-07T11:52:31;20.80;99.90
8862;DHT22;4799;50.996;4.754;2023-05-07T11:54:58;20.80;99.90
8862;DHT22;4799;50.996;4.754;2023-05-07T11:57:25;20.80;99.90
8862;DHT22;4799;50.996;4.754;2023-05-07T11:59:55;20.90;99.90
8862;DHT22;4799;50.996;4.754;2023-05-07T12:02:21;20.90;99.90
8862;DHT22;4799;50.996;4.754;2023-05-07T12:04:46;20.90;99.90
8862;DHT22;4799;50.996;4.754;2023-05-07T12:07:13;20.90;99.90
8862;DHT22;4799;50.996;4.754;2023-05-07T12:09:42;21.00;99.90
8862;DHT22;4799;50.996;4.754;2023-05-07T12:12:08;21.00;99.90
8862;DHT22;4799;50.996;4.754;2023-05-07T12:14:44;21.10;99.90
8862;DHT22;4799;50.996;4.754;2023-05-07T12:17:11;21.10;99.90
8862;DHT22;4799;50.996;4.754;2023-05-07T12:19:39;21.10;99.90
8862;DHT22;4799;50.996;4.754;2023-05-07T12:22:07;21.10;99.90
8862;DHT22;4799;50.996;4.754;2023-05-07T12:24:47;21.20;99.90
8862;DHT22;4799;50.996;4.754;2023-05-07T12:27:17;21.30;99.90
8862;DHT22;4799;50.996;4.754;2023-05-07T12:29:50;21.30;99.90
8862;DHT22;4799;50.996;4.754;2023-05-07T12:32:25;21.40;99.90
8862;DHT22;4799;50.996;4.754;2023-05-07T12:34:51;21.50;99.90
8862;DHT22;4799;50.996;4.754;2023-05-07T12:37:23;21.60;99.90
8862;DHT22;4799;50.996;4.754;2023-05-07T12:39:59;21.60;99.90
8862;DHT22;4799;50.996;4.754;2023-05-07T12:42:35;21.70;99.90
8862;DHT22;4799;50.996;4.754;2023-05-07T12:45:17;21.80;99.90
8862;DHT22;4799;50.996;4.754;2023-05-07T12:47:46;22.00;99.90
8862;DHT22;4799;50.996;4.754;2023-05-07T12:50:13;22.10;99.90
8862;DHT22;4799;50.996;4.754;2023-05-07T12:52:41;22.20;99.90
8862;DHT22;4799;50.996;4.754;2023-05-07T12:55:08;22.30;99.90
8862;DHT22;4799;50.996;4.754;2023-05-07T12:57:38;22.40;99.90
8862;DHT22;4799;50.996;4.754;2023-05-07T13:00:06;22.50;99.90
8862;DHT22;4799;50.996;4.754;2023-05-07T13:02:33;22.50;99.90
8862;DHT22;4799;50.996;4.754;2023-05-07T13:05:00;22.60;99.90
8862;DHT22;4799;50.996;4.754;2023-05-07T13:07:25;22.60;99.90
8862;DHT22;4799;50.996;4.754;2023-05-07T13:09:51;22.60;99.90
8862;DHT22;4799;50.996;4.754;2023-05-07T13:12:17;22.60;99.90
8862;DHT22;4799;50.996;4.754;2023-05-07T13:14:42;22.70;99.90
8862;DHT22;4799;50.996;4.754;2023-05-07T13:17:08;22.70;99.90
8862;DHT22;4799;50.996;4.754;2023-05-07T13:19:34;22.70;99.90
8862;DHT22;4799;50.996;4.754;2023-05-07T13:21:59;22.80;99.90
8862;DHT22;4799;50.996;4.754;2023-05-07T13:24:25;22.70;99.90
8862;DHT22;4799;50.996;4.754;2023-05-07T13:26:51;22.60;99.90
8862;DHT22;4799;50.996;4.754;2023-05-07T13:29:16;22.50;99.90
8862;DHT22;4799;50.996;4.754;2023-05-07T13:31:42;22.40;99.90
8862;DHT22;4799;50.996;4.754;2023-05-07T13:34:10;22.40;99.90
8862;DHT22;4799;50.996;4.754;2023-05-07T13:36:35;22.40;99.90
8862;DHT22;4799;50.996;4.754;2023-05-07T13:39:04;22.60;99.90
8862;DHT22;4799;50.996;4.754;2023-05-07T13:41:31;22.60;99.90
8862;DHT22;4799;50.996;4.754;2023-05-07T13:43:57;22.70;99.90
8862;DHT22;4799;50.996;4.754;2023-05-07T13:46:22;22.80;99.90
8862;DHT22;4799;50.996;4.754;2023-05-07T13:48:48;22.80;99.90
8862;DHT22;4799;50.996;4.754;2023-05-07T13:51:14;22.70;99.90
8862;DHT22;4799;50.996;4.754;2023-05-07T13:53:40;22.70;99.90
8862;DHT22;4799;50.996;4.754;2023-05-07T13:56:05;22.70;99.90
8862;DHT22;4799;50.996;4.754;2023-05-07T13:58:31;22.70;99.90
8862;DHT22;4799;50.996;4.754;2023-05-07T14:00:57;22.70;99.90
8862;DHT22;4799;50.996;4.754;2023-05-07T14:03:22;22.80;99.90
8862;DHT22;4799;50.996;4.754;2023-05-07T14:05:48;22.90;99.90
8862;DHT22;4799;50.996;4.754;2023-05-07T14:08:14;23.00;99.90
8862;DHT22;4799;50.996;4.754;2023-05-07T14:10:40;23.10;99.90
8862;DHT22;4799;50.996;4.754;2023-05-07T14:13:06;23.10;99.90
8862;DHT22;4799;50.996;4.754;2023-05-07T14:15:31;23.20;99.90
8862;DHT22;4799;50.996;4.754;2023-05-07T14:18:00;23.30;99.90
8862;DHT22;4799;50.996;4.754;2023-05-07T14:20:26;23.30;99.90
8862;DHT22;4799;50.996;4.754;2023-05-07T14:22:52;23.30;99.90
8862;DHT22;4799;50.996;4.754;2023-05-07T14:25:17;23.30;99.90
8862;DHT22;4799;50.996;4.754;2023-05-07T14:27:43;23.20;99.90
8862;DHT22;4799;50.996;4.754;2023-05-07T14:30:09;23.20;99.90
8862;DHT22;4799;50.996;4.754;2023-05-07T14:32:35;23.00;99.90
8862;DHT22;4799;50.996;4.754;2023-05-07T14:35:01;22.90;99.90
8862;DHT22;4799;50.996;4.754;2023-05-07T14:37:27;22.90;99.90
8862;DHT22;4799;50.996;4.754;2023-05-07T14:39:53;22.80;99.90
8862;DHT22;4799;50.996;4.754;2023-05-07T14:42:19;22.80;99.90
8862;DHT22;4799;50.996;4.754;2023-05-07T14:44:45;22.80;99.90
8862;DHT22;4799;50.996;4.754;2023-05-07T14:47:12;22.70;99.90
8862;DHT22;4799;50.996;4.754;2023-05-07T14:49:38;22.70;99.90
8862;DHT22;4799;50.996;4.754;2023-05-07T14:52:04;22.80;99.90
8862;DHT22;4799;50.996;4.754;2023-05-07T14:54:33;22.80;99.90
8862;DHT22;4799;50.996;4.754;2023-05-07T14:57:00;22.90;99.90
8862;DHT22;4799;50.996;4.754;2023-05-07T14:59:26;22.90;99.90
8862;DHT22;4799;50.996;4.754;2023-05-07T15:01:52;23.00;99.90
8862;DHT22;4799;50.996;4.754;2023-05-07T15:04:18;23.10;99.90
8862;DHT22;4799;50.996;4.754;2023-05-07T15:06:44;23.10;99.90
8862;DHT22;4799;50.996;4.754;2023-05-07T15:09:10;23.10;99.90
8862;DHT22;4799;50.996;4.754;2023-05-07T15:11:35;23.10;99.90
8862;DHT22;4799;50.996;4.754;2023-05-07T15:14:01;23.20;99.90
8862;DHT22;4799;50.996;4.754;2023-05-07T15:16:27;23.20;99.90
8862;DHT22;4799;50.996;4.754;2023-05-07T15:18:52;23.20;99.90
8862;DHT22;4799;50.996;4.754;2023-05-07T15:21:18;23.20;99.90
8862;DHT22;4799;50.996;4.754;2023-05-07T15:23:44;23.20;99.90
8862;DHT22;4799;50.996;4.754;2023-05-07T15:26:10;23.20;99.90
8862;DHT22;4799;50.996;4.754;2023-05-07T15:28:36;23.20;99.90
8862;DHT22;4799;50.996;4.754;2023-05-07T15:31:02;23.10;99.90
8862;DHT22;4799;50.996;4.754;2023-05-07T15:33:27;23.10;99.90
8862;DHT22;4799;50.996;4.754;2023-05-07T15:35:53;23.10;99.90
8862;DHT22;4799;50.996;4.754;2023-05-07T15:38:19;23.10;99.90
8862;DHT22;4799;50.996;4.754;2023-05-07T15:40:45;23.00;99.90
8862;DHT22;4799;50.996;4.754;2023-05-07T15:43:11;22.90;99.90
8862;DHT22;4799;50.996;4.754;2023-05-07T15:45:41;22.80;99.90
8862;DHT22;4799;50.996;4.754;2023-05-07T15:48:08;22.80;99.90
8862;DHT22;4799;50.996;4.754;2023-05-07T15:50:34;22.70;99.90
8862;DHT22;4799;50.996;4.754;2023-05-07T15:53:00;22.70;99.90
8862;DHT22;4799;50.996;4.754;2023-05-07T15:55:26;22.70;99.90
8862;DHT22;4799;50.996;4.754;2023-05-07T15:57:51;22.60;99.90
8862;DHT22;4799;50.996;4.754;2023-05-07T16:00:20;22.60;99.90
8862;DHT22;4799;50.996;4.754;2023-05-07T16:02:46;22.60;99.90
8862;DHT22;4799;50.996;4.754;2023-05-07T16:05:11;22.50;99.90
8862;DHT22;4799;50.996;4.754;2023-05-07T16:07:38;22.40;99.90